createdAt,value
2022-12-25T00:23:39.693Z,995.39
2022-12-25T00:26:34.485Z,995.25
2022-12-25T00:30:31.817Z,995.23
2022-12-25T00:31:31.857Z,995.35
2022-12-25T00:32:32.424Z,995.36
2022-12-25T00:33:31.892Z,995.41
2022-12-25T00:34:33.384Z,995.46
2022-12-25T00:35:31.850Z,995.60
2022-12-25T00:36:36.258Z,995.43
2022-12-25T00:37:57.684Z,995.47
2022-12-25T00:38:31.900Z,995.49
2022-12-25T00:39:34.876Z,995.50
2022-12-25T00:40:34.029Z,995.47
2022-12-25T00:41:33.881Z,995.58
2022-12-25T00:42:33.629Z,995.54
2022-12-25T00:43:33.210Z,995.56
2022-12-25T00:44:33.725Z,995.54
2022-12-25T00:45:34.987Z,995.62
2022-12-25T00:46:37.531Z,995.64
2022-12-25T00:47:34.912Z,995.52
2022-12-25T00:48:34.119Z,995.63
2022-12-25T00:49:33.544Z,995.51
2022-12-25T00:50:33.771Z,995.47
2022-12-25T00:51:33.200Z,995.55
2022-12-25T00:52:33.056Z,995.51
2022-12-25T00:53:33.154Z,995.59
2022-12-25T00:54:32.923Z,995.59
2022-12-25T00:55:33.084Z,995.59
2022-12-25T00:56:32.800Z,995.61
2022-12-25T00:57:32.928Z,995.68
2022-12-25T00:58:32.928Z,995.63
2022-12-25T00:59:32.877Z,995.62
2022-12-25T01:00:32.877Z,995.68
2022-12-25T01:01:33.162Z,995.70
2022-12-25T01:02:33.118Z,995.70
2022-12-25T01:03:33.692Z,995.60
2022-12-25T01:04:33.402Z,995.60
2022-12-25T01:05:33.747Z,995.68
2022-12-25T01:06:33.424Z,995.60
2022-12-25T01:07:33.364Z,995.62
2022-12-25T01:08:33.752Z,995.57
2022-12-25T01:09:33.831Z,995.59
2022-12-25T01:10:33.953Z,995.60
2022-12-25T01:11:34.375Z,995.57
2022-12-25T01:12:33.506Z,995.57
2022-12-25T01:13:33.092Z,995.59
2022-12-25T01:14:33.242Z,995.55
2022-12-25T01:15:33.362Z,995.62
2022-12-25T01:16:33.147Z,995.61
2022-12-25T01:17:33.885Z,995.61
2022-12-25T01:18:33.483Z,995.67
2022-12-25T01:19:34.021Z,995.68
2022-12-25T01:20:33.863Z,995.62
2022-12-25T01:21:33.010Z,995.67
2022-12-25T01:22:33.210Z,995.61
2022-12-25T01:23:33.412Z,995.57
2022-12-25T01:24:32.957Z,995.56
2022-12-25T01:25:33.374Z,995.49
2022-12-25T01:26:33.756Z,995.54
2022-12-25T01:27:34.470Z,995.59
2022-12-25T01:28:33.151Z,995.61
2022-12-25T01:29:32.966Z,995.59
2022-12-25T01:30:33.303Z,995.63
2022-12-25T01:31:33.194Z,995.68
2022-12-25T01:32:33.185Z,995.66
2022-12-25T01:33:33.040Z,995.67
2022-12-25T01:34:32.849Z,995.68
2022-12-25T01:35:32.642Z,995.74
2022-12-25T01:36:32.430Z,995.74
2022-12-25T01:37:32.505Z,995.72
2022-12-25T01:38:32.491Z,995.75
2022-12-25T01:39:32.349Z,995.76
2022-12-25T01:40:32.632Z,995.68
2022-12-25T01:41:32.755Z,995.66
2022-12-25T01:42:32.563Z,995.71
2022-12-25T01:43:32.665Z,995.68
2022-12-25T01:44:32.688Z,995.67
2022-12-25T01:45:32.126Z,995.72
2022-12-25T01:46:32.082Z,995.70
2022-12-25T01:47:32.063Z,995.72
2022-12-25T01:48:32.141Z,995.79
2022-12-25T01:49:32.080Z,995.71
2022-12-25T01:50:32.071Z,995.78
2022-12-25T01:51:31.995Z,995.75
2022-12-25T01:52:31.993Z,995.69
2022-12-25T01:53:32.006Z,995.70
2022-12-25T01:54:31.954Z,995.78
2022-12-25T01:55:32.013Z,995.72
2022-12-25T01:56:32.015Z,995.71
2022-12-25T01:57:31.940Z,995.72
2022-12-25T01:58:31.971Z,995.66
2022-12-25T01:59:31.933Z,995.66
2022-12-25T02:00:31.948Z,995.67
2022-12-25T02:01:32.080Z,995.65
2022-12-25T02:02:32.124Z,995.73
2022-12-25T02:03:32.102Z,995.79
2022-12-25T02:04:31.900Z,995.75
2022-12-25T02:05:31.923Z,995.74
2022-12-25T02:06:31.887Z,995.83
2022-12-25T02:07:31.846Z,995.77
2022-12-25T02:08:31.934Z,995.80
2022-12-25T02:09:31.845Z,995.78
2022-12-25T02:10:31.851Z,995.79
2022-12-25T02:11:31.843Z,995.73
2022-12-25T02:12:31.811Z,995.74
2022-12-25T02:13:31.819Z,995.77
2022-12-25T02:14:31.757Z,995.78
2022-12-25T02:15:31.838Z,995.73
2022-12-25T02:16:31.808Z,995.75
2022-12-25T02:17:31.729Z,995.73
2022-12-25T02:18:31.757Z,995.66
2022-12-25T02:19:31.787Z,995.68
2022-12-25T02:20:31.718Z,995.63
2022-12-25T02:21:31.918Z,995.63
2022-12-25T02:22:31.799Z,995.62
2022-12-25T02:23:31.857Z,995.58
2022-12-25T02:24:31.722Z,995.60
2022-12-25T02:25:31.760Z,995.55
2022-12-25T02:26:31.709Z,995.61
2022-12-25T02:27:31.709Z,995.58
2022-12-25T02:28:31.732Z,995.61
2022-12-25T02:29:31.698Z,995.59
2022-12-25T02:30:31.688Z,995.55
2022-12-25T02:31:31.714Z,995.53
2022-12-25T02:32:31.676Z,995.55
2022-12-25T02:33:31.642Z,995.53
2022-12-25T02:34:31.741Z,995.56
2022-12-25T02:35:31.622Z,995.53
2022-12-25T02:36:31.591Z,995.47
2022-12-25T02:37:31.634Z,995.44
2022-12-25T02:38:31.676Z,995.42
2022-12-25T02:39:31.662Z,995.46
2022-12-25T02:40:31.591Z,995.48
2022-12-25T02:41:31.643Z,995.47
2022-12-25T02:42:31.652Z,995.48
2022-12-25T02:43:31.658Z,995.42
2022-12-25T02:44:31.627Z,995.41
2022-12-25T02:45:31.634Z,995.41
2022-12-25T02:46:31.546Z,995.39
2022-12-25T02:47:31.464Z,995.43
2022-12-25T02:48:31.508Z,995.35
2022-12-25T02:49:31.486Z,995.49
2022-12-25T02:50:31.500Z,995.48
2022-12-25T02:51:31.543Z,995.46
2022-12-25T02:52:31.491Z,995.53
2022-12-25T02:53:31.522Z,995.48
2022-12-25T02:54:31.474Z,995.51
2022-12-25T02:55:31.512Z,995.47
2022-12-25T02:56:31.447Z,995.48
2022-12-25T02:57:31.462Z,995.51
2022-12-25T02:58:31.473Z,995.50
2022-12-25T02:59:31.509Z,995.50
2022-12-25T03:00:32.434Z,995.46
2022-12-25T03:01:31.629Z,995.51
2022-12-25T03:02:31.585Z,995.54
2022-12-25T03:03:31.515Z,995.53
2022-12-25T03:04:31.468Z,995.45
2022-12-25T03:05:31.447Z,995.50
2022-12-25T03:06:31.485Z,995.55
2022-12-25T03:07:31.504Z,995.56
2022-12-25T03:08:31.427Z,995.61
2022-12-25T03:09:31.556Z,995.66
2022-12-25T03:10:31.566Z,995.68
2022-12-25T03:11:31.425Z,995.64
2022-12-25T03:12:31.462Z,995.67
2022-12-25T03:13:31.664Z,995.68
2022-12-25T03:14:31.474Z,995.70
2022-12-25T03:15:31.328Z,995.63
2022-12-25T03:16:31.461Z,995.66
2022-12-25T03:17:31.362Z,995.66
2022-12-25T03:18:31.363Z,995.61
2022-12-25T03:19:31.429Z,995.64
2022-12-25T03:20:31.257Z,995.65
2022-12-25T03:21:31.482Z,995.62
2022-12-25T03:22:31.512Z,995.60
2022-12-25T03:23:31.413Z,995.65
2022-12-25T03:24:31.369Z,995.58
2022-12-25T03:25:31.273Z,995.61
2022-12-25T03:26:31.283Z,995.58
2022-12-25T03:27:31.248Z,995.63
2022-12-25T03:28:32.178Z,995.64
2022-12-25T03:29:31.944Z,995.57
2022-12-25T03:30:32.185Z,995.56
2022-12-25T03:31:31.122Z,995.53
2022-12-25T03:32:31.094Z,995.57
2022-12-25T03:33:46.007Z,995.54
2022-12-25T03:34:33.060Z,995.56
2022-12-25T03:35:31.009Z,995.63
2022-12-25T03:36:31.120Z,995.69
2022-12-25T03:37:32.106Z,995.69
2022-12-25T03:38:31.046Z,995.61
2022-12-25T03:39:31.073Z,995.56
2022-12-25T03:40:31.011Z,995.50
2022-12-25T03:41:31.020Z,995.45
2022-12-25T03:42:32.192Z,995.48
2022-12-25T03:43:30.914Z,995.46
2022-12-25T03:44:30.969Z,995.45
2022-12-25T03:45:30.929Z,995.47
2022-12-25T03:46:31.022Z,995.48
2022-12-25T03:47:30.894Z,995.51
2022-12-25T03:48:30.900Z,995.50
2022-12-25T03:49:30.887Z,995.46
2022-12-25T03:50:30.824Z,995.46
2022-12-25T03:51:30.872Z,995.45
2022-12-25T03:52:30.868Z,995.43
2022-12-25T03:53:30.823Z,995.46
2022-12-25T03:54:30.831Z,995.50
2022-12-25T03:55:30.785Z,995.45
2022-12-25T03:56:30.819Z,995.45
2022-12-25T03:57:30.815Z,995.35
2022-12-25T03:58:30.776Z,995.37
2022-12-25T03:59:30.784Z,995.29
2022-12-25T04:00:31.212Z,995.38
2022-12-25T04:01:31.549Z,995.39
2022-12-25T04:02:31.288Z,995.38
2022-12-25T04:03:31.019Z,995.31
2022-12-25T04:04:30.933Z,995.35
2022-12-25T04:05:31.044Z,995.31
2022-12-25T04:06:30.680Z,995.30
2022-12-25T04:07:30.694Z,995.19
2022-12-25T04:08:30.693Z,995.25
2022-12-25T04:09:30.667Z,995.26
2022-12-25T04:10:30.637Z,995.28
2022-12-25T04:11:30.643Z,995.26
2022-12-25T04:12:30.711Z,995.27
2022-12-25T04:13:30.612Z,995.24
2022-12-25T04:14:30.621Z,995.20
2022-12-25T04:15:30.681Z,995.21
2022-12-25T04:16:30.617Z,995.17
2022-12-25T04:17:30.566Z,995.19
2022-12-25T04:18:30.575Z,995.16
2022-12-25T04:19:30.604Z,995.19
2022-12-25T04:20:30.556Z,995.24
2022-12-25T04:21:30.781Z,995.28
2022-12-25T04:22:30.689Z,995.27
2022-12-25T04:23:30.714Z,995.29
2022-12-25T04:24:30.717Z,995.29
2022-12-25T04:25:30.661Z,995.30
2022-12-25T04:26:30.702Z,995.26
2022-12-25T04:27:30.559Z,995.22
2022-12-25T04:28:30.630Z,995.16
2022-12-25T04:29:30.515Z,995.14
2022-12-25T04:30:30.554Z,995.17
2022-12-25T04:31:30.593Z,995.18
2022-12-25T04:32:31.637Z,995.17
2022-12-25T04:33:30.657Z,995.10
2022-12-25T04:34:30.658Z,995.19
2022-12-25T04:35:30.637Z,995.10
2022-12-25T04:36:30.496Z,995.08
2022-12-25T04:37:30.488Z,995.10
2022-12-25T04:38:30.367Z,995.05
2022-12-25T04:39:30.374Z,995.05
2022-12-25T04:40:30.349Z,995.08
2022-12-25T04:41:30.386Z,995.09
2022-12-25T04:42:30.316Z,995.09
2022-12-25T04:43:30.341Z,995.09
2022-12-25T04:44:30.366Z,995.03
2022-12-25T04:45:30.324Z,994.99
2022-12-25T04:46:30.395Z,994.94
2022-12-25T04:47:30.283Z,994.94
2022-12-25T04:48:30.256Z,994.91
2022-12-25T04:49:30.291Z,994.88
2022-12-25T04:50:30.245Z,994.84
2022-12-25T04:51:30.362Z,994.82
2022-12-25T04:52:30.321Z,994.79
2022-12-25T04:53:30.373Z,994.83
2022-12-25T04:54:30.280Z,994.83
2022-12-25T04:55:30.284Z,994.78
2022-12-25T04:56:30.310Z,994.83
2022-12-25T04:57:30.324Z,994.84
2022-12-25T04:58:30.281Z,994.76
2022-12-25T04:59:30.325Z,994.78
2022-12-25T05:00:30.355Z,994.74
2022-12-25T05:01:30.450Z,994.80
2022-12-25T05:02:30.495Z,994.77
2022-12-25T05:03:30.371Z,994.74
2022-12-25T05:04:30.337Z,994.86
2022-12-25T05:05:31.223Z,994.84
2022-12-25T05:06:30.339Z,994.92
2022-12-25T05:07:30.199Z,994.93
2022-12-25T05:08:30.329Z,994.99
2022-12-25T05:09:30.348Z,994.99
2022-12-25T05:10:30.260Z,994.95
2022-12-25T05:11:30.179Z,994.99
2022-12-25T05:12:30.242Z,994.94
2022-12-25T05:13:30.189Z,994.93
2022-12-25T05:14:30.189Z,994.94
2022-12-25T05:15:30.125Z,995.02
2022-12-25T05:16:30.257Z,995.09
2022-12-25T05:17:30.069Z,995.14
2022-12-25T05:18:29.981Z,995.16
2022-12-25T05:19:29.964Z,995.09
2022-12-25T05:20:34.724Z,995.09
2022-12-25T05:21:31.986Z,995.07
2022-12-25T05:22:29.970Z,995.03
2022-12-25T05:23:29.909Z,995.01
2022-12-25T05:24:29.965Z,995.07
2022-12-25T05:25:29.881Z,995.05
2022-12-25T05:26:29.911Z,995.04
2022-12-25T05:27:29.899Z,995.11
2022-12-25T05:28:29.845Z,995.01
2022-12-25T05:29:29.892Z,995.08
2022-12-25T05:30:29.877Z,995.05
2022-12-25T05:31:29.854Z,995.07
2022-12-25T05:32:29.835Z,995.12
2022-12-25T05:33:29.872Z,995.16
2022-12-25T05:34:29.834Z,995.13
2022-12-25T05:35:29.855Z,995.17
2022-12-25T05:36:29.837Z,995.22
2022-12-25T05:37:29.813Z,995.19
2022-12-25T05:38:29.782Z,995.20
2022-12-25T05:39:29.797Z,995.21
2022-12-25T05:40:29.744Z,995.24
2022-12-25T05:41:34.150Z,995.25
2022-12-25T05:42:31.787Z,995.28
2022-12-25T05:43:29.732Z,995.33
2022-12-25T05:44:29.695Z,995.22
2022-12-25T05:45:29.695Z,995.30
2022-12-25T05:46:29.786Z,995.19
2022-12-25T05:47:29.671Z,995.25
2022-12-25T05:48:29.696Z,995.22
2022-12-25T05:49:29.690Z,995.21
2022-12-25T05:50:29.696Z,995.11
2022-12-25T05:51:29.683Z,995.14
2022-12-25T05:52:29.666Z,995.09
2022-12-25T05:53:29.601Z,995.05
2022-12-25T05:54:29.628Z,995.09
2022-12-25T05:55:29.659Z,995.06
2022-12-25T05:56:29.643Z,995.10
2022-12-25T05:57:29.611Z,995.06
2022-12-25T05:58:29.588Z,995.03
2022-12-25T05:59:29.570Z,994.99
2022-12-25T06:00:29.617Z,994.97
2022-12-25T06:01:29.704Z,995.04
2022-12-25T06:02:29.769Z,995.05
2022-12-25T06:03:29.676Z,995.02
2022-12-25T06:04:29.537Z,995.08
2022-12-25T06:05:29.529Z,995.09
2022-12-25T06:06:29.487Z,995.03
2022-12-25T06:07:29.471Z,995.05
2022-12-25T06:08:29.460Z,995.02
2022-12-25T06:09:29.522Z,994.99
2022-12-25T06:10:29.489Z,995.02
2022-12-25T06:11:29.440Z,994.97
2022-12-25T06:12:29.512Z,994.98
2022-12-25T06:13:29.428Z,995.02
2022-12-25T06:14:29.458Z,995.02
2022-12-25T06:15:29.474Z,995.06
2022-12-25T06:16:35.591Z,995.03
2022-12-25T06:17:31.436Z,995.04
2022-12-25T06:18:29.393Z,995.03
2022-12-25T06:57:53.264Z,994.87
2022-12-25T06:58:54.607Z,994.86
2022-12-25T06:59:55.513Z,994.89
2022-12-25T07:00:55.585Z,994.85
2022-12-25T07:01:54.588Z,994.80
2022-12-25T07:02:54.432Z,994.75
2022-12-25T07:03:54.384Z,994.79
2022-12-25T07:04:54.410Z,994.77
2022-12-25T07:05:54.338Z,994.77
2022-12-25T07:06:54.342Z,994.77
2022-12-25T07:07:54.286Z,994.70
2022-12-25T07:08:54.271Z,994.69
2022-12-25T07:09:54.298Z,994.64
2022-12-25T07:10:54.284Z,994.64
2022-12-25T07:11:54.245Z,994.59
2022-12-25T07:12:54.210Z,994.54
2022-12-25T07:13:54.252Z,994.62
2022-12-25T07:14:54.249Z,994.57
2022-12-25T07:15:54.212Z,994.59
2022-12-25T07:16:54.253Z,994.53
2022-12-25T07:17:54.185Z,994.49
2022-12-25T07:18:54.194Z,994.41
2022-12-25T07:19:54.160Z,994.42
2022-12-25T07:20:54.187Z,994.41
2022-12-25T07:21:54.119Z,994.44
2022-12-25T07:22:54.122Z,994.48
2022-12-25T07:23:54.204Z,994.54
2022-12-25T07:24:54.125Z,994.53
2022-12-25T07:25:54.156Z,994.55
2022-12-25T07:26:54.141Z,994.51
2022-12-25T07:27:54.132Z,994.57
2022-12-25T07:28:54.087Z,994.53
2022-12-25T07:29:54.054Z,994.56
2022-12-25T07:30:54.080Z,994.53
2022-12-25T07:31:54.099Z,994.59
2022-12-25T07:32:54.056Z,994.62
2022-12-25T07:33:54.073Z,994.59
2022-12-25T07:34:54.023Z,994.59
2022-12-25T07:35:54.016Z,994.61
2022-12-25T07:36:54.003Z,994.72
2022-12-25T07:37:54.025Z,994.67
2022-12-25T07:38:53.987Z,994.66
2022-12-25T07:39:54.032Z,994.63
2022-12-25T07:40:54.010Z,994.66
2022-12-25T07:41:53.946Z,994.60
2022-12-25T07:42:53.934Z,994.59
2022-12-25T07:43:54.022Z,994.58
2022-12-25T07:44:53.973Z,994.50
2022-12-25T07:45:54.020Z,994.55
2022-12-25T07:46:53.901Z,994.50
2022-12-25T07:47:55.143Z,994.53
2022-12-25T07:48:54.946Z,994.53
2022-12-25T07:49:53.921Z,994.47
2022-12-25T07:50:54.016Z,994.47
2022-12-25T07:51:53.852Z,994.39
2022-12-25T07:52:53.878Z,994.37
2022-12-25T07:53:53.873Z,994.25
2022-12-25T07:54:53.884Z,994.26
2022-12-25T07:55:53.901Z,994.19
2022-12-25T07:56:53.818Z,994.11
2022-12-25T07:57:53.788Z,994.04
2022-12-25T07:58:53.843Z,993.99
2022-12-25T07:59:53.816Z,993.90
2022-12-25T08:00:53.887Z,993.82
2022-12-25T08:01:54.035Z,993.78
2022-12-25T08:02:53.957Z,993.74
2022-12-25T08:03:53.873Z,993.74
2022-12-25T08:04:53.736Z,993.70
2022-12-25T08:05:53.772Z,993.72
2022-12-25T08:06:53.694Z,993.81
2022-12-25T08:07:57.361Z,993.82
2022-12-25T08:08:54.720Z,993.93
2022-12-25T08:09:53.708Z,993.89
2022-12-25T08:10:53.703Z,993.92
2022-12-25T08:11:53.653Z,994.02
2022-12-25T08:12:53.688Z,994.10
2022-12-25T08:13:53.711Z,994.13
2022-12-25T08:14:53.645Z,994.14
2022-12-25T08:15:53.664Z,994.09
2022-12-25T08:16:53.654Z,994.16
2022-12-25T08:17:53.647Z,994.15
2022-12-25T08:18:53.606Z,994.18
2022-12-25T08:19:53.631Z,994.13
2022-12-25T08:20:53.601Z,994.14
2022-12-25T08:21:53.560Z,994.18
2022-12-25T08:22:53.556Z,994.16
2022-12-25T08:23:53.581Z,994.16
2022-12-25T08:24:53.573Z,994.15
2022-12-25T08:25:56.597Z,994.10
2022-12-25T08:26:54.558Z,994.19
2022-12-25T08:27:53.585Z,994.19
2022-12-25T08:28:53.521Z,994.14
2022-12-25T08:29:53.508Z,994.14
2022-12-25T08:30:53.585Z,994.11
2022-12-25T08:31:53.581Z,994.12
2022-12-25T08:32:53.507Z,994.14
2022-12-25T08:33:53.469Z,994.20
2022-12-25T08:34:53.503Z,994.16
2022-12-25T08:35:53.511Z,994.21
2022-12-25T08:36:53.461Z,994.21
2022-12-25T08:37:53.423Z,994.16
2022-12-25T08:38:55.682Z,994.11
2022-12-25T08:39:55.401Z,994.15
2022-12-25T08:40:53.478Z,994.23
2022-12-25T08:41:53.373Z,994.22
2022-12-25T08:42:53.391Z,994.21
2022-12-25T08:43:53.376Z,994.19
2022-12-25T08:44:53.353Z,994.21
2022-12-25T08:45:53.358Z,994.10
2022-12-25T08:46:53.347Z,994.02
2022-12-25T08:47:53.381Z,994.00
2022-12-25T08:48:53.347Z,994.06
2022-12-25T08:49:53.354Z,994.15
2022-12-25T08:50:53.303Z,994.24
2022-12-25T08:51:53.284Z,994.24
2022-12-25T08:52:53.307Z,994.26
2022-12-25T08:53:53.277Z,994.22
2022-12-25T08:54:53.285Z,994.22
2022-12-25T08:55:53.341Z,994.19
2022-12-25T08:56:58.611Z,994.17
2022-12-25T08:57:54.331Z,994.19
2022-12-25T09:05:51.081Z,994.14
2022-12-25T09:06:52.332Z,994.07
2022-12-25T09:07:52.228Z,994.08
2022-12-25T09:08:52.131Z,994.00
2022-12-25T09:09:52.200Z,994.04
2022-12-25T09:10:52.170Z,993.99
2022-12-25T09:11:52.242Z,994.09
2022-12-25T09:12:52.207Z,994.13
2022-12-25T09:13:52.218Z,994.14
2022-12-25T09:14:52.160Z,994.06
2022-12-25T09:15:52.217Z,994.04
2022-12-25T09:16:52.106Z,993.91
2022-12-25T09:17:52.123Z,993.88
2022-12-25T09:18:52.276Z,993.75
2022-12-25T09:19:52.112Z,993.72
2022-12-25T09:20:52.156Z,993.70
2022-12-25T09:21:52.157Z,993.70
2022-12-25T09:22:52.145Z,993.62
2022-12-25T09:23:52.112Z,993.72
2022-12-25T09:24:52.008Z,993.65
2022-12-25T09:25:52.014Z,993.70
2022-12-25T09:26:52.092Z,993.72
2022-12-25T09:27:51.987Z,993.71
2022-12-25T09:28:52.800Z,993.80
2022-12-25T09:29:52.989Z,993.78
2022-12-25T09:30:51.988Z,993.75
2022-12-25T09:31:51.965Z,993.75
2022-12-25T09:32:51.895Z,993.74
2022-12-25T09:33:51.923Z,993.71
2022-12-25T09:34:51.964Z,993.68
2022-12-25T09:35:51.845Z,993.67
2022-12-25T09:36:51.945Z,993.66
2022-12-25T09:37:51.879Z,993.72
2022-12-25T09:38:51.870Z,993.66
2022-12-25T09:39:51.911Z,993.71
2022-12-25T09:40:51.829Z,993.76
2022-12-25T09:41:51.861Z,993.79
2022-12-25T09:42:51.819Z,993.75
2022-12-25T09:43:51.781Z,993.74
2022-12-25T09:44:51.799Z,993.79
2022-12-25T09:45:51.800Z,993.80
2022-12-25T09:46:51.887Z,993.72
2022-12-25T09:47:51.764Z,993.70
2022-12-25T09:48:51.741Z,993.66
2022-12-25T09:49:51.750Z,993.64
2022-12-25T09:50:51.823Z,993.58
2022-12-25T09:51:51.751Z,993.66
2022-12-25T09:52:52.423Z,993.67
2022-12-25T09:53:52.538Z,993.66
2022-12-25T09:54:51.709Z,993.64
2022-12-25T09:55:51.748Z,993.64
2022-12-25T09:56:51.690Z,993.55
2022-12-25T09:57:51.654Z,993.56
2022-12-25T09:58:51.685Z,993.44
2022-12-25T09:59:51.630Z,993.45
2022-12-25T10:00:51.612Z,993.44
2022-12-25T10:01:51.756Z,993.55
2022-12-25T10:02:51.787Z,993.51
2022-12-25T10:03:51.662Z,993.55
2022-12-25T10:04:51.635Z,993.48
2022-12-25T10:41:23.699Z,993.45
2022-12-25T10:42:25.085Z,993.42
2022-12-25T10:43:25.202Z,993.44
2022-12-25T10:44:24.961Z,993.45
2022-12-25T10:45:24.851Z,993.41
2022-12-25T10:46:24.873Z,993.37
2022-12-25T10:47:24.899Z,993.31
2022-12-25T10:48:24.842Z,993.23
2022-12-25T10:49:24.844Z,993.21
2022-12-25T10:50:24.836Z,993.14
2022-12-25T10:51:24.870Z,993.02
2022-12-25T10:52:24.735Z,992.99
2022-12-25T10:53:24.762Z,992.89
2022-12-25T10:54:24.787Z,992.84
2022-12-25T10:55:28.805Z,992.84
2022-12-25T10:56:25.773Z,992.80
2022-12-25T10:57:24.747Z,992.74
2022-12-25T10:58:24.833Z,992.78
2022-12-25T10:59:24.680Z,992.78
2022-12-25T11:00:24.712Z,992.81
2022-12-25T11:01:24.787Z,992.84
2022-12-25T11:02:24.836Z,992.81
2022-12-25T11:03:24.980Z,992.76
2022-12-25T11:20:13.331Z,992.53
2022-12-25T11:21:14.703Z,992.54
2022-12-25T11:22:14.639Z,992.54
2022-12-25T11:23:14.489Z,992.53
2022-12-25T11:24:14.459Z,992.54
2022-12-25T11:25:14.449Z,992.55
2022-12-25T11:26:14.467Z,992.41
2022-12-25T11:27:14.419Z,992.45
2022-12-25T11:28:14.397Z,992.43
2022-12-25T11:29:14.392Z,992.41
2022-12-25T11:30:16.068Z,992.42
2022-12-25T11:31:15.414Z,992.45
2022-12-25T11:32:14.402Z,992.47
2022-12-25T11:33:14.355Z,992.49
2022-12-25T11:34:14.326Z,992.50
2022-12-25T11:35:14.484Z,992.42
2022-12-25T11:36:14.307Z,992.42
2022-12-25T11:40:26.884Z,992.45
2022-12-25T11:41:26.879Z,992.45
2022-12-25T11:42:26.975Z,992.47
2022-12-25T11:43:26.853Z,992.44
2022-12-25T11:52:19.357Z,992.58
2022-12-25T11:53:20.663Z,992.49
2022-12-25T11:54:20.587Z,992.50
2022-12-25T11:55:20.449Z,992.57
2022-12-25T11:56:20.482Z,992.54
2022-12-25T11:57:20.464Z,992.64
2022-12-25T11:58:20.397Z,992.66
2022-12-25T11:59:20.445Z,992.53
2022-12-25T12:00:20.378Z,992.54
2022-12-25T12:01:20.508Z,992.44
2022-12-25T12:02:20.466Z,992.47
2022-12-25T12:03:20.481Z,992.47
2022-12-25T12:04:25.792Z,992.50
2022-12-25T12:05:21.420Z,992.42
2022-12-25T12:06:20.329Z,992.35
2022-12-25T12:07:20.351Z,992.37
2022-12-25T12:08:20.308Z,992.40
2022-12-25T12:09:20.303Z,992.41
2022-12-25T12:10:20.284Z,992.37
2022-12-25T12:11:20.247Z,992.35
2022-12-25T12:12:20.358Z,992.29
2022-12-25T12:13:20.245Z,992.29
2022-12-25T12:14:20.238Z,992.31
2022-12-25T12:15:20.238Z,992.25
2022-12-25T12:16:20.281Z,992.20
2022-12-25T12:17:20.245Z,992.10
2022-12-25T12:18:20.230Z,992.10
2022-12-25T12:19:20.165Z,992.09
2022-12-25T12:20:53.088Z,992.05
2022-12-25T12:21:20.927Z,991.99
2022-12-25T12:22:20.549Z,991.99
2022-12-25T12:23:21.949Z,991.93
2022-12-25T12:24:20.494Z,991.91
2022-12-25T12:35:35.601Z,991.69
2022-12-25T12:36:38.126Z,991.69
2022-12-25T12:44:52.545Z,991.66
2022-12-25T13:03:29.096Z,991.29
2022-12-25T13:19:17.425Z,991.26
2022-12-25T13:28:04.875Z,991.19
2022-12-25T13:29:11.004Z,991.13
2022-12-25T13:30:07.233Z,991.05
2022-12-25T13:31:06.210Z,991.01
2022-12-25T13:32:06.073Z,990.97
2022-12-25T13:33:06.170Z,990.96
2022-12-25T13:34:06.012Z,990.95
2022-12-25T13:35:05.973Z,990.97
2022-12-25T13:36:06.038Z,990.84
2022-12-25T13:37:06.020Z,990.87
2022-12-25T13:38:05.962Z,990.96
2022-12-25T13:39:05.907Z,990.85
2022-12-25T13:40:05.920Z,990.91
2022-12-25T13:41:06.026Z,990.80
2022-12-25T13:42:05.928Z,990.82
2022-12-25T13:43:05.882Z,990.85
2022-12-25T13:44:05.886Z,990.85
2022-12-25T13:45:05.884Z,990.84
2022-12-25T13:46:05.983Z,990.82
2022-12-25T13:47:05.817Z,990.89
2022-12-25T13:48:05.880Z,990.85
2022-12-25T13:49:05.785Z,990.74
2022-12-25T13:50:05.868Z,990.77
2022-12-25T13:51:05.788Z,990.79
2022-12-25T13:52:06.457Z,990.75
2022-12-25T13:53:05.821Z,990.69
2022-12-25T13:54:05.839Z,990.71
2022-12-25T13:55:05.750Z,990.70
2022-12-25T13:56:05.735Z,990.70
2022-12-25T13:57:05.817Z,990.68
2022-12-25T13:58:05.952Z,990.73
2022-12-25T13:59:05.791Z,990.70
2022-12-25T14:00:05.767Z,990.71
2022-12-25T14:01:05.820Z,990.75
2022-12-25T14:02:05.902Z,990.78
2022-12-25T14:03:05.946Z,990.81
2022-12-25T14:04:05.652Z,990.80
2022-12-25T14:05:05.678Z,990.79
2022-12-25T14:06:05.824Z,990.72
2022-12-25T14:07:05.850Z,990.68
2022-12-25T14:08:05.620Z,990.69
2022-12-25T14:09:05.689Z,990.57
2022-12-25T14:10:06.814Z,990.60
2022-12-25T14:11:05.858Z,990.67
2022-12-25T14:12:05.747Z,990.61
2022-12-25T14:13:05.636Z,990.66
2022-12-25T14:14:05.682Z,990.70
2022-12-25T14:15:05.748Z,990.65
2022-12-25T14:16:05.691Z,990.65
2022-12-25T14:17:05.777Z,990.62
2022-12-25T14:18:05.596Z,990.57
2022-12-25T14:19:05.623Z,990.50
2022-12-25T14:20:08.605Z,990.51
2022-12-25T14:21:06.542Z,990.54
2022-12-25T14:22:05.599Z,990.48
2022-12-25T14:23:05.767Z,990.52
2022-12-25T14:24:05.623Z,990.48
2022-12-25T14:25:05.663Z,990.43
2022-12-25T14:36:13.177Z,990.37
2022-12-25T14:37:14.769Z,990.36
2022-12-25T14:38:14.620Z,990.29
2022-12-25T14:39:14.617Z,990.21
2022-12-25T14:40:14.408Z,990.25
2022-12-25T14:41:14.543Z,990.30
2022-12-25T14:42:14.346Z,990.35
2022-12-25T14:43:14.295Z,990.38
2022-12-25T14:44:14.295Z,990.36
2022-12-25T14:45:14.468Z,990.41
2022-12-25T14:46:14.294Z,990.45
2022-12-25T14:47:14.387Z,990.45
2022-12-25T14:48:16.481Z,990.42
2022-12-25T14:49:14.434Z,990.43
2022-12-25T14:50:14.351Z,990.52
2022-12-25T14:51:14.431Z,990.46
2022-12-25T14:52:14.646Z,990.50
2022-12-25T14:53:14.319Z,990.52
2022-12-25T14:54:14.316Z,990.49
2022-12-25T14:55:14.292Z,990.51
2022-12-25T14:56:14.258Z,990.46
2022-12-25T14:57:14.140Z,990.40
2022-12-25T14:58:14.436Z,990.38
2022-12-25T14:59:14.477Z,990.34
2022-12-25T15:00:14.135Z,990.37
2022-12-25T15:01:14.302Z,990.37
2022-12-25T15:02:15.434Z,990.37
2022-12-25T15:03:15.418Z,990.36
2022-12-25T15:04:14.300Z,990.43
2022-12-25T15:05:14.201Z,990.47
2022-12-25T15:06:14.281Z,990.40
2022-12-25T15:07:14.146Z,990.42
2022-12-25T15:08:14.349Z,990.43
2022-12-25T15:09:14.038Z,990.43
2022-12-25T15:10:57.681Z,990.53
2022-12-25T15:11:16.104Z,990.47
2022-12-25T15:12:14.032Z,990.48
2022-12-25T15:13:14.102Z,990.43
2022-12-25T15:14:14.170Z,990.34
2022-12-25T15:15:14.048Z,990.39
2022-12-25T15:16:14.167Z,990.32
2022-12-25T15:17:13.967Z,990.29
2022-12-25T15:18:14.043Z,990.29
2022-12-25T15:19:14.631Z,990.27
2022-12-25T15:44:39.488Z,990.44
2022-12-25T15:45:41.246Z,990.47
2022-12-25T16:07:16.197Z,990.35
2022-12-25T16:08:16.507Z,990.33
2022-12-25T16:09:16.325Z,990.33
2022-12-25T16:10:16.242Z,990.30
2022-12-25T16:16:51.614Z,990.24
2022-12-25T16:18:11.731Z,990.23
2022-12-25T16:18:55.300Z,990.23
2022-12-25T16:19:55.153Z,990.08
2022-12-25T16:20:53.417Z,990.16
2022-12-25T16:21:55.547Z,990.19
2022-12-25T16:23:20.719Z,990.16
2022-12-25T16:25:52.116Z,990.14
2022-12-25T16:32:29.945Z,990.22
2022-12-25T16:34:03.570Z,990.22
2022-12-25T16:34:31.625Z,990.19
2022-12-25T16:35:31.107Z,990.21
2022-12-25T16:36:30.921Z,990.29
2022-12-25T16:37:30.965Z,990.22
2022-12-25T16:38:30.963Z,990.24
2022-12-25T16:39:30.938Z,990.23
2022-12-25T16:40:30.895Z,990.24
2022-12-25T16:45:08.853Z,990.08
2022-12-25T16:46:30.244Z,990.08
2022-12-25T16:47:10.256Z,990.09
2022-12-25T16:48:10.216Z,990.05
2022-12-25T16:49:48.747Z,990.04
2022-12-25T16:50:10.228Z,990.03
2022-12-25T16:51:10.064Z,989.98
2022-12-25T16:52:09.854Z,990.02
2022-12-25T16:53:10.292Z,990.00
2022-12-25T16:54:10.080Z,989.93